Time;durP1;ratioP1;P1;durP2;ratioP2;P2;SDS_P1;SDS_P2;PMS_P1;PMS_P2;Temp;Humidity;BMP_temperature;BMP_pressure;BME280_temperature;BME280_humidity;BME280_pressure;Samples;Min_cycle;Max_cycle;Signal;HPM_P1;HPM_P2
2023/09/14 00:00:43;;;;;;;6.57;5.97;;;;;;;19.35;100.00;102298.31;5071242;28;20153;-70
2023/09/14 00:03:08;;;;;;;7.57;6.13;;;;;;;18.84;100.00;102207.66;5052996;28;20111;-70
2023/09/14 00:05:39;;;;;;;7.45;6.72;;;;;;;19.08;100.00;102297.28;5053013;28;20593;-70
2023/09/14 00:08:04;;;;;;;10.40;7.10;;;;;;;18.53;100.00;102197.28;5068375;28;20052;-70
2023/09/14 00:10:29;;;;;;;8.32;6.80;;;;;;;19.42;100.00;102305.00;5069618;28;20024;-71
2023/09/14 00:12:55;;;;;;;9.98;7.20;;;;;;;19.37;100.00;102337.84;5071166;28;20411;-70
2023/09/14 00:15:21;;;;;;;8.65;6.93;;;;;;;18.93;100.00;102303.69;5069352;28;20107;-70
2023/09/14 00:17:46;;;;;;;8.43;7.10;;;;;;;19.13;100.00;102367.66;5070614;28;20470;-70
2023/09/14 00:20:20;;;;;;;7.97;7.18;;;;;;;19.11;100.00;102549.97;5071311;28;20036;-70
2023/09/14 00:22:47;;;;;;;7.80;7.00;;;;;;;18.69;100.00;102523.38;5070971;28;20112;-70
2023/09/14 00:25:13;;;;;;;7.78;7.07;;;;;;;19.11;100.00;102608.44;5069569;28;20123;-69
2023/09/14 00:27:39;;;;;;;9.18;7.10;;;;;;;19.17;100.00;102614.34;5070435;28;20178;-70
2023/09/14 00:30:05;;;;;;;7.97;6.97;;;;;;;19.19;100.00;102620.31;5069294;28;20048;-70
2023/09/14 00:32:38;;;;;;;8.88;7.05;;;;;;;18.87;100.00;102623.56;5068909;28;20152;-70
2023/09/14 00:35:05;;;;;;;;;;;;;;;18.93;100.00;102674.16;5071198;28;20025;-70
2023/09/14 00:37:31;;;;;;;8.57;6.70;;;;;;;19.02;100.00;102655.91;5070592;28;19919;-70
2023/09/14 00:39:56;;;;;;;8.98;6.82;;;;;;;18.82;100.00;102674.34;5070547;28;20033;-70
2023/09/14 00:42:22;;;;;;;7.63;6.63;;;;;;;18.48;100.00;102786.63;5068828;28;20081;-70
2023/09/14 00:44:47;;;;;;;8.43;6.47;;;;;;;18.97;100.00;102839.13;5069571;28;20037;-70
2023/09/14 00:47:13;;;;;;;7.43;6.57;;;;;;;18.67;100.00;102775.16;5071245;28;20116;-70
2023/09/14 00:49:39;;;;;;;7.60;6.90;;;;;;;18.99;100.00;102836.53;5069145;28;20465;-70
2023/09/14 00:52:06;;;;;;;7.70;6.60;;;;;;;18.79;100.00;102793.00;5070694;28;20036;-70
2023/09/14 00:54:32;;;;;;;7.45;6.30;;;;;;;18.84;100.00;102826.44;5070293;28;20025;-70
2023/09/14 00:56:58;;;;;;;10.32;7.13;;;;;;;18.56;100.00;102753.84;5070401;28;20067;-70
2023/09/14 00:59:24;;;;;;;8.05;6.95;;;;;;;18.87;100.00;102834.13;5070445;28;20028;-70
2023/09/14 01:01:50;;;;;;;9.43;6.97;;;;;;;18.55;100.00;102741.84;5070257;28;20079;-70
2023/09/14 01:04:16;;;;;;;8.05;6.40;;;;;;;19.01;100.00;102798.66;5070653;28;20028;-70
2023/09/14 01:06:41;;;;;;;8.40;6.55;;;;;;;18.86;100.00;102775.69;5070239;28;20074;-71
2023/09/14 01:09:07;;;;;;;7.38;6.35;;;;;;;18.71;100.00;102696.91;5076081;28;20422;-70
2023/09/14 01:11:32;;;;;;;7.45;6.70;;;;;;;18.54;100.00;102652.50;5079805;28;20028;-70
2023/09/14 01:14:17;;;;;;;6.40;5.80;;;;;;;18.92;100.00;102659.53;5069842;28;20029;-71
2023/09/14 01:17:12;;;;;;;7.25;6.35;;;;;;;18.71;100.00;102640.19;5069241;28;20420;-71
2023/09/14 01:19:47;;;;;;;6.80;6.10;;;;;;;18.63;100.00;102664.41;5044453;28;20051;-70
2023/09/14 01:22:42;;;;;;;9.52;6.55;;;;;;;18.16;100.00;102650.56;5070570;28;20040;-70
2023/09/14 01:25:19;;;;;;;7.53;6.60;;;;;;;18.74;100.00;102704.56;5069027;28;20482;-70
2023/09/14 01:27:45;;;;;;;11.27;6.78;;;;;;;18.01;100.00;102583.88;5065904;28;20050;-70
2023/09/14 01:30:10;;;;;;;7.18;6.47;;;;;;;18.47;100.00;102620.03;5068924;28;20051;-70
2023/09/14 01:32:36;;;;;;;9.30;6.40;;;;;;;18.54;100.00;102659.41;5069777;28;20502;-71
2023/09/14 01:35:04;;;;;;;7.03;6.32;;;;;;;18.40;100.00;102595.19;5068999;28;20040;-70
2023/09/14 01:37:30;;;;;;;7.20;6.50;;;;;;;18.21;100.00;102606.72;5069672;28;20040;-70
2023/09/14 01:39:56;;;;;;;8.77;6.40;;;;;;;18.40;100.00;102667.34;5071420;28;20037;-71
2023/09/14 01:42:23;;;;;;;6.93;6.22;;;;;;;17.66;100.00;102575.88;5073936;28;20024;-70
2023/09/14 01:44:50;;;;;;;8.23;6.18;;;;;;;18.39;100.00;102706.88;5074076;28;20032;-70
2023/09/14 01:47:16;;;;;;;7.20;6.43;;;;;;;18.30;100.00;102717.34;5073478;28;20044;-70
2023/09/14 01:49:42;;;;;;;8.00;6.75;;;;;;;18.25;100.00;102729.41;5074001;28;20028;-70
2023/09/14 01:52:08;;;;;;;9.02;6.28;;;;;;;18.65;100.00;102750.28;5072044;28;20437;-70
2023/09/14 01:54:33;;;;;;;8.20;6.88;;;;;;;18.07;100.00;102658.44;5073427;28;20032;-70
2023/09/14 01:56:59;;;;;;;9.25;6.32;;;;;;;18.35;100.00;102717.25;5072079;28;20028;-70
2023/09/14 01:59:24;;;;;;;7.95;6.95;;;;;;;17.91;100.00;102594.34;5072006;28;20039;-70
2023/09/14 02:01:50;;;;;;;7.10;6.38;;;;;;;18.22;100.00;102618.72;5073690;28;20107;-70
2023/09/14 02:04:15;;;;;;;8.82;7.40;;;;;;;18.15;100.00;102557.88;5073546;28;20039;-70
2023/09/14 02:06:40;;;;;;;7.85;6.88;;;;;;;18.29;100.00;102581.66;5071666;28;20474;-70
2023/09/14 02:09:06;;;;;;;7.65;6.63;;;;;;;18.60;100.00;102592.31;5073027;28;20055;-70
2023/09/14 02:11:31;;;;;;;8.45;7.20;;;;;;;18.08;100.00;102517.66;5072048;28;20028;-70
2023/09/14 02:13:57;;;;;;;7.50;6.45;;;;;;;18.20;100.00;102513.13;5073055;28;20064;-70
2023/09/14 02:16:23;;;;;;;7.65;6.85;;;;;;;18.36;100.00;102554.91;5073031;28;20032;-71
2023/09/14 02:18:48;;;;;;;10.55;7.50;;;;;;;17.77;100.00;102480.44;5071748;28;20036;-70
2023/09/14 02:21:16;;;;;;;7.82;6.82;;;;;;;17.74;100.00;102477.94;5073335;28;20089;-71
2023/09/14 02:23:42;;;;;;;8.40;7.18;;;;;;;17.92;100.00;102537.69;5073352;28;20078;-70
2023/09/14 02:26:07;;;;;;;10.52;7.30;;;;;;;17.91;100.00;102545.41;5072887;28;20563;-70
2023/09/14 02:28:32;;;;;;;8.48;7.30;;;;;;;17.46;100.00;102459.50;5071403;28;20032;-70
2023/09/14 02:30:58;;;;;;;8.30;7.30;;;;;;;18.07;100.00;102554.59;5071573;28;20036;-70
2023/09/14 02:33:23;;;;;;;8.70;7.70;;;;;;;17.70;100.00;102510.63;5059465;28;20025;-70
2023/09/14 02:35:50;;;;;;;11.18;7.93;;;;;;;17.22;100.00;102475.31;5052602;28;20043;-70
2023/09/14 02:38:17;;;;;;;11.95;8.00;;;;;;;17.61;100.00;102522.78;5052576;28;20565;-70
2023/09/14 02:40:43;;;;;;;8.98;7.70;;;;;;;18.02;100.00;102587.31;5052863;28;20460;-70
2023/09/14 02:43:08;;;;;;;9.20;7.80;;;;;;;18.13;100.00;102583.66;5051658;28;20029;-70
2023/09/14 02:45:34;;;;;;;10.20;8.00;;;;;;;17.82;100.00;102537.88;5052196;28;20029;-70
2023/09/14 02:47:59;;;;;;;8.77;7.97;;;;;;;17.93;100.00;102548.81;5053084;28;20392;-70
2023/09/14 02:50:24;;;;;;;9.73;8.35;;;;;;;18.01;100.00;102578.72;5051830;28;20040;-70
2023/09/14 02:52:50;;;;;;;10.70;8.32;;;;;;;17.63;100.00;102532.16;5052005;28;20033;-70
2023/09/14 02:55:15;;;;;;;8.90;8.00;;;;;;;17.92;100.00;102588.31;5052173;28;20044;-70
2023/09/14 02:57:41;;;;;;;10.73;8.60;;;;;;;17.72;100.00;102559.47;5052186;28;20040;-70
2023/09/14 03:00:16;;;;;;;8.98;8.07;;;;;;;17.50;100.00;102594.97;5050762;28;20194;-69
2023/09/14 03:02:42;;;;;;;10.25;8.30;;;;;;;17.62;100.00;102610.25;5051330;28;20060;-69
2023/09/14 03:05:09;;;;;;;12.00;9.07;;;;;;;17.53;100.00;102640.41;5034576;28;20064;-70
2023/09/14 03:07:35;;;;;;;12.77;9.07;;;;;;;17.29;100.00;102611.50;5051025;28;20540;-69
2023/09/14 03:10:00;;;;;;;11.50;9.40;;;;;;;17.14;100.00;102623.72;5051852;28;20108;-69
2023/09/14 03:12:25;;;;;;;11.43;9.65;;;;;;;17.44;100.00;102677.34;5052007;28;20400;-69
2023/09/14 03:14:51;;;;;;;11.32;9.73;;;;;;;17.35;100.00;102704.03;5051871;28;20148;-69
2023/09/14 03:17:16;;;;;;;11.65;9.20;;;;;;;17.55;100.00;102716.69;5051956;28;20032;-69
2023/09/14 03:19:42;;;;;;;12.25;9.02;;;;;;;17.11;100.00;102663.16;5050290;28;20479;-70
2023/09/14 03:22:08;;;;;;;13.02;9.38;;;;;;;17.43;100.00;102723.69;5060671;28;20489;-69
2023/09/14 03:24:33;;;;;;;10.43;8.32;;;;;;;17.65;100.00;102750.91;5061140;28;20101;-69
2023/09/14 03:26:58;;;;;;;9.45;8.15;;;;;;;17.07;100.00;102689.78;5071471;28;20032;-69
2023/09/14 03:29:24;;;;;;;13.05;9.57;;;;;;;17.30;100.00;102736.69;5071488;28;20476;-69
2023/09/14 03:31:50;;;;;;;12.10;9.13;;;;;;;17.36;100.00;102743.47;5077663;28;20032;-69
2023/09/14 03:34:16;;;;;;;11.85;9.52;;;;;;;17.19;100.00;102900.50;5074622;28;20055;-69
2023/09/14 03:36:41;;;;;;;11.45;9.65;;;;;;;17.51;100.00;102995.47;5071662;28;20474;-72
2023/09/14 03:39:08;;;;;;;14.38;9.77;;;;;;;17.51;100.00;103058.97;5071522;28;20435;-70
2023/09/14 03:41:33;;;;;;;11.73;9.23;;;;;;;17.83;100.00;103098.16;5053252;28;20040;-70
2023/09/14 03:43:59;;;;;;;14.07;7.70;;;;;;;18.86;100.00;103114.34;5070920;28;20028;-71
2023/09/14 03:46:25;;;;;;;11.45;8.73;;;;;;;17.67;100.00;103039.97;5070569;28;20489;-70
2023/09/14 03:48:50;;;;;;;11.00;9.48;;;;;;;17.00;100.00;102963.25;5071276;28;20090;-70
2023/09/14 03:51:15;;;;;;;9.93;9.02;;;;;;;17.03;100.00;102957.22;5069390;28;20051;-70
2023/09/14 03:53:41;;;;;;;10.82;9.45;;;;;;;17.03;100.00;102988.94;5070084;28;20119;-70
2023/09/14 03:56:07;;;;;;;9.68;8.65;;;;;;;17.13;100.00;103025.75;5071270;28;20032;-69
2023/09/14 03:58:32;;;;;;;12.77;9.30;;;;;;;17.21;100.00;103054.84;5053014;28;20036;-69
2023/09/14 04:00:59;;;;;;;10.70;9.60;;;;;;;16.91;100.00;103050.72;5069863;28;20029;-70
2023/09/14 04:03:24;;;;;;;11.90;8.93;;;;;;;17.62;100.00;103158.38;5070453;28;20024;-69
2023/09/14 04:05:49;;;;;;;11.45;7.70;;;;;;;18.17;100.00;103157.13;5069469;28;20067;-69
2023/09/14 04:08:15;;;;;;;14.32;9.38;;;;;;;17.81;100.00;103164.25;5069336;28;20089;-70
2023/09/14 04:10:41;;;;;;;11.75;8.75;;;;;;;17.30;100.00;103091.63;5069740;28;20414;-70
2023/09/14 04:13:32;;;;;;;10.93;9.38;;;;;;;17.77;100.00;103167.72;5069366;28;20045;-69
2023/09/14 04:15:58;;;;;;;11.17;9.03;;;;;;;17.30;100.00;103170.53;5071197;28;20031;-70
2023/09/14 04:18:25;;;;;;;12.35;9.35;;;;;;;17.20;100.00;103172.28;5070872;28;20035;-68
2023/09/14 04:20:51;;;;;;;12.65;10.15;;;;;;;16.89;100.00;103154.38;5069765;28;20062;-70
2023/09/14 04:23:16;;;;;;;16.58;9.43;;;;;;;17.21;100.00;103220.28;5070683;28;20486;-69
2023/09/14 04:25:44;;;;;;;12.50;9.27;;;;;;;17.41;100.00;103263.94;5070217;28;20036;-71
2023/09/14 04:28:18;;;;;;;11.40;9.80;;;;;;;17.59;100.00;103258.75;5071315;28;20116;-71
2023/09/14 04:30:48;;;;;;;13.45;10.82;;;;;;;17.75;100.00;103321.31;5069574;28;20082;-70
2023/09/14 04:33:16;;;;;;;12.50;10.00;;;;;;;17.83;100.00;103350.47;5050623;28;20415;-68
2023/09/14 04:35:42;;;;;;;15.95;9.65;;;;;;;17.90;100.00;103372.78;5068302;28;20032;-71
2023/09/14 04:38:08;;;;;;;12.32;10.38;;;;;;;17.88;100.00;103372.78;5070408;28;20094;-71
2023/09/14 04:40:43;;;;;;;13.93;9.98;;;;;;;17.87;100.00;103367.63;5070075;28;20032;-66
2023/09/14 04:43:10;;;;;;;16.80;9.85;;;;;;;17.96;100.00;103354.72;5070004;28;20033;-70
2023/09/14 04:45:35;;;;;;;17.05;10.18;;;;;;;18.04;100.00;103358.13;5071088;28;20482;-70
2023/09/14 04:48:02;;;;;;;12.70;9.50;;;;;;;18.53;100.00;103366.47;5070537;28;20034;-70
2023/09/14 04:50:28;;;;;;;15.50;10.45;;;;;;;18.03;100.00;103274.84;5069184;28;20040;-69
2023/09/14 04:52:55;;;;;;;12.93;10.13;;;;;;;18.07;100.00;103230.19;5051763;28;20032;-69
2023/09/14 04:55:21;;;;;;;13.93;10.27;;;;;;;18.11;100.00;103200.97;5068099;28;20032;-70
2023/09/14 04:57:46;;;;;;;12.88;10.63;;;;;;;18.21;100.00;103165.69;5069559;28;20092;-71
2023/09/14 05:00:12;;;;;;;13.63;11.02;;;;;;;17.75;100.00;103093.09;5051568;28;20119;-69
2023/09/14 05:02:39;;;;;;;13.90;10.60;;;;;;;18.25;100.00;103128.72;5068787;28;20133;-69
2023/09/14 05:05:06;;;;;;;16.67;10.55;;;;;;;18.07;100.00;103039.59;5068758;28;20249;-67
2023/09/14 05:07:32;;;;;;;16.60;10.18;;;;;;;18.15;100.00;103003.44;5051803;28;20559;-69
2023/09/14 05:09:58;;;;;;;16.92;11.02;;;;;;;18.51;100.00;102994.50;5070301;28;20025;-69
2023/09/14 05:12:23;;;;;;;15.00;10.38;;;;;;;18.42;100.00;102896.66;5070269;28;20031;-68
2023/09/14 05:14:49;;;;;;;15.32;10.60;;;;;;;18.92;100.00;102900.22;5072114;28;20054;-68
2023/09/14 05:17:14;;;;;;;17.48;11.38;;;;;;;18.69;100.00;102750.22;5074406;28;20032;-69
2023/09/14 05:19:42;;;;;;;16.17;11.63;;;;;;;19.09;100.00;102723.72;5055856;28;20074;-68
2023/09/14 05:22:07;;;;;;;14.75;10.68;;;;;;;18.90;100.00;102520.34;5074677;28;20153;-71
2023/09/14 05:24:32;;;;;;;22.33;11.13;;;;;;;19.03;100.00;102487.41;5074344;28;20509;-69
2023/09/14 05:27:00;;;;;;;19.80;11.40;;;;;;;19.45;100.00;102499.31;5073753;28;20043;-69
2023/09/14 05:29:25;;;;;;;15.48;10.30;;;;;;;19.14;100.00;102420.91;5073959;28;20503;-69
2023/09/14 05:31:52;;;;;;;16.55;10.30;;;;;;;19.31;100.00;102444.59;5073819;28;20469;-69
2023/09/14 05:34:17;;;;;;;14.05;10.23;;;;;;;19.91;100.00;102477.53;5073668;28;20490;-68
2023/09/14 05:36:43;;;;;;;16.27;10.68;;;;;;;19.93;100.00;102404.25;5073746;28;20064;-68
2023/09/14 05:39:08;;;;;;;13.77;11.48;;;;;;;19.99;100.00;102336.06;5073174;28;20040;-69
2023/09/14 05:41:34;;;;;;;13.13;9.60;;;;;;;20.41;100.00;102360.69;5074070;28;20099;-70
2023/09/14 05:44:00;;;;;;;15.73;9.73;;;;;;;20.51;100.00;102331.94;5073694;28;20074;-69
2023/09/14 05:46:26;;;;;;;16.00;10.32;;;;;;;20.52;100.00;102273.31;5055667;28;20110;-68
2023/09/14 05:48:51;;;;;;;16.33;8.45;;;;;;;20.56;100.00;102252.47;5072857;28;20479;-69
2023/09/14 05:51:17;;;;;;;18.73;9.38;;;;;;;20.23;100.00;102160.53;5055714;28;20453;-69
2023/09/14 05:53:42;;;;;;;14.25;7.88;;;;;;;20.83;100.00;102178.31;5073403;28;20029;-70
2023/09/14 05:56:07;;;;;;;17.23;8.07;;;;;;;21.15;100.00;102115.09;5073523;28;20046;-68
2023/09/14 05:58:33;;;;;;;17.25;7.13;;;;;;;21.55;100.00;102073.81;5073411;28;20029;-70
2023/09/14 06:01:00;;;;;;;8.90;7.22;;;;;;;22.03;100.00;102060.63;5073324;28;20054;-70
2023/09/14 06:03:26;;;;;;;14.70;7.80;;;;;;;21.92;100.00;101954.88;5073178;28;20029;-70
2023/09/14 06:05:51;;;;;;;12.35;9.52;;;;;;;21.65;100.00;101917.16;5073692;28;20464;-70
2023/09/14 06:08:17;;;;;;;10.90;7.45;;;;;;;21.67;100.00;101844.59;5055195;28;20090;-71
2023/09/14 06:10:42;;;;;;;16.30;10.38;;;;;;;21.67;100.00;101848.00;5073587;28;20182;-70
2023/09/14 06:13:08;;;;;;;11.15;7.38;;;;;;;21.71;100.00;101826.25;5055216;28;20431;-70
2023/09/14 06:15:33;;;;;;;10.88;7.45;;;;;;;22.02;100.00;101800.69;5072019;28;20104;-70
2023/09/14 06:17:58;;;;;;;10.23;6.53;;;;;;;22.10;100.00;101777.84;5054636;28;20423;-70
2023/09/14 06:20:24;;;;;;;10.32;6.40;;;;;;;21.98;100.00;101695.50;5072883;28;20509;-70
2023/09/14 06:22:49;;;;;;;12.30;6.55;;;;;;;21.97;100.00;101673.09;5054919;28;20506;-70
2023/09/14 06:25:15;;;;;;;10.23;5.88;;;;;;;22.74;100.00;101696.97;5072772;28;20032;-69
2023/09/14 06:27:40;;;;;;;8.55;5.82;;;;;;;23.01;100.00;101652.28;5073411;28;20036;-69
2023/09/14 06:30:08;;;;;;;7.82;5.25;;;;;;;23.14;100.00;101618.69;5073062;28;20545;-70
2023/09/14 06:32:33;;;;;;;19.25;8.85;;;;;;;22.37;100.00;101516.44;5072880;28;20116;-70
2023/09/14 06:34:59;;;;;;;36.67;16.70;;;;;;;22.93;100.00;101534.22;5072705;28;20112;-70
2023/09/14 06:37:24;;;;;;;11.48;6.65;;;;;;;22.67;100.00;101456.97;5073144;28;20025;-70
2023/09/14 06:39:49;;;;;;;15.55;7.43;;;;;;;23.17;100.00;101458.47;5072676;28;20060;-70
2023/09/14 06:42:15;;;;;;;8.23;4.97;;;;;;;23.14;100.00;101435.25;5072490;28;20098;-69
2023/09/14 06:44:40;;;;;;;9.00;4.90;;;;;;;23.58;100.00;101444.88;5072621;28;20036;-70
2023/09/14 06:47:06;;;;;;;11.35;5.50;;;;;;;23.04;100.00;101383.94;5072289;28;20040;-69
2023/09/14 06:49:31;;;;;;;13.82;5.85;;;;;;;23.59;100.00;101407.59;5071950;28;20040;-70
2023/09/14 06:51:56;;;;;;;12.48;6.07;;;;;;;24.37;100.00;101391.53;5072505;28;20059;-70
2023/09/14 06:54:22;;;;;;;24.75;8.45;;;;;;;24.77;100.00;101360.34;5072277;28;20031;-69
2023/09/14 06:56:47;;;;;;;15.50;5.97;;;;;;;25.07;100.00;101346.25;5072831;28;20390;-70
2023/09/14 06:59:14;;;;;;;16.92;5.35;;;;;;;24.42;100.00;101272.47;5072354;28;20032;-70
2023/09/14 07:01:39;;;;;;;11.07;5.35;;;;;;;24.93;100.00;101236.09;5054849;28;20066;-70
2023/09/14 07:04:05;;;;;;;14.32;5.43;;;;;;;25.10;100.00;101283.59;5071951;28;20032;-69
2023/09/14 07:06:31;;;;;;;14.27;5.45;;;;;;;24.87;100.00;101183.59;5072331;28;20464;-70
2023/09/14 07:08:56;;;;;;;12.18;5.97;;;;;;;24.75;100.00;101200.03;5072314;28;20036;-70
2023/09/14 07:11:22;;;;;;;15.82;6.38;;;;;;;25.19;100.00;101207.44;5072182;28;20027;-70
2023/09/14 07:13:47;;;;;;;10.30;6.00;;;;;;;24.73;100.00;101205.34;5054456;28;20127;-70
2023/09/14 07:16:12;;;;;;;14.50;5.85;;;;;;;24.99;100.00;101190.56;5072389;28;20085;-71
2023/09/14 07:18:38;;;;;;;12.35;5.28;;;;;;;23.51;100.00;101144.94;5071532;28;20074;-71
2023/09/14 07:21:04;;;;;;;8.30;5.20;;;;;;;24.54;100.00;101136.41;5071685;28;20817;-70
2023/09/14 07:23:32;;;;;;;13.02;6.07;;;;;;;25.56;100.00;101154.44;5072055;28;20050;-70
2023/09/14 07:25:58;;;;;;;10.50;5.32;;;;;;;25.42;100.00;101132.00;5071953;28;20461;-70
2023/09/14 07:28:24;;;;;;;12.20;5.30;;;;;;;26.26;100.00;101114.50;5071814;28;20032;-70
2023/09/14 07:30:50;;;;;;;7.45;5.13;;;;;;;26.14;100.00;101065.03;5071485;28;20400;-69
2023/09/14 07:33:17;;;;;;;8.93;4.85;;;;;;;25.74;100.00;101047.13;5053353;28;20094;-69
2023/09/14 07:35:44;;;;;;;10.10;4.68;;;;;;;25.72;100.00;101072.47;5071953;28;20055;-69
2023/09/14 07:38:12;;;;;;;8.77;5.40;;;;;;;25.53;100.00;101025.22;5070690;28;20108;-70
2023/09/14 07:40:38;;;;;;;15.20;8.65;;;;;;;24.99;100.00;100991.91;5071532;28;20085;-68
2023/09/14 07:43:03;;;;;;;17.70;11.85;;;;;;;26.12;100.00;100976.50;5063799;28;20025;-69
2023/09/14 07:45:30;;;;;;;13.93;9.00;;;;;;;26.59;100.00;101006.72;5062004;28;20040;-70
2023/09/14 07:47:56;;;;;;;8.88;5.68;;;;;;;26.48;100.00;100993.69;5055107;28;20037;-71
2023/09/14 07:50:21;;;;;;;13.10;6.65;;;;;;;27.01;100.00;100982.50;5050995;28;20033;-69
2023/09/14 07:52:47;;;;;;;7.97;5.55;;;;;;;26.44;100.00;100886.09;5051115;28;20500;-69
2023/09/14 07:55:13;;;;;;;12.45;5.95;;;;;;;26.46;100.00;100935.59;5050287;28;20036;-70
2023/09/14 07:57:39;;;;;;;8.43;5.05;;;;;;;26.43;100.00;100982.78;5051858;28;20108;-70
2023/09/14 08:00:06;;;;;;;11.38;5.75;;;;;;;26.84;100.00;100982.19;5050902;28;20040;-70
2023/09/14 08:02:32;;;;;;;8.13;5.22;;;;;;;26.98;100.00;100967.03;5051258;28;20033;-70
2023/09/14 08:04:58;;;;;;;9.73;5.38;;;;;;;27.96;100.00;100931.91;5051392;28;20067;-71
2023/09/14 08:07:23;;;;;;;11.57;5.60;;;;;;;26.47;100.00;100958.09;5049943;28;20115;-70
2023/09/14 08:09:49;;;;;;;17.08;5.72;;;;;;;27.62;100.00;100959.19;5051149;28;20035;-71
2023/09/14 08:12:14;;;;;;;9.35;6.28;;;;;;;27.34;100.00;100961.50;5050880;28;20479;-71
2023/09/14 08:14:40;;;;;;;7.10;5.30;;;;;;;27.34;100.00;100956.25;5051409;28;20084;-71
2023/09/14 08:17:05;;;;;;;8.10;4.22;;;;;;;26.72;100.00;100950.00;5049562;28;20029;-71
2023/09/14 08:19:31;;;;;;;9.68;4.25;;;;;;;27.40;100.00;100950.53;5050952;28;20044;-70
2023/09/14 08:21:57;;;;;;;8.82;4.22;;;;;;;27.37;100.00;100955.19;5049740;28;20064;-70
2023/09/14 08:24:22;;;;;;;34.10;5.72;;;;;;;27.29;100.00;100876.59;5050747;28;20529;-70
2023/09/14 08:26:48;;;;;;;6.00;4.03;;;;;;;27.53;100.00;100915.53;5050873;28;20119;-71
2023/09/14 08:29:13;;;;;;;8.27;4.60;;;;;;;27.89;100.00;100902.00;5050759;28;20045;-70
2023/09/14 08:31:42;;;;;;;7.30;4.25;;;;;;;28.02;100.00;100884.31;5050650;28;20113;-71
2023/09/14 08:34:08;;;;;;;10.93;4.72;;;;;;;28.99;100.00;100869.50;5050821;28;20052;-71
2023/09/14 08:36:33;;;;;;;7.90;4.55;;;;;;;28.97;100.00;100899.41;5050711;28;20067;-69
2023/09/14 08:38:58;;;;;;;5.93;4.45;;;;;;;26.86;100.00;100891.50;5050533;28;20037;-70
2023/09/14 08:41:44;;;;;;;8.57;4.30;;;;;;;28.52;100.00;100888.59;5051154;28;20032;-71
2023/09/14 08:44:11;;;;;;;7.32;4.05;;;;;;;28.21;100.00;100894.84;5051358;28;20029;-70
2023/09/14 08:46:38;;;;;;;9.88;4.07;;;;;;;28.50;100.00;100906.22;5050687;28;20458;-70
2023/09/14 08:49:05;;;;;;;7.70;4.00;;;;;;;27.88;100.00;100861.94;5050138;28;20032;-70
2023/09/14 08:51:33;;;;;;;6.45;4.05;;;;;;;28.72;100.00;100858.06;5050707;28;20528;-69
2023/09/14 08:53:59;;;;;;;23.63;5.47;;;;;;;29.19;100.00;100882.59;5049131;28;20036;-69
2023/09/14 08:56:26;;;;;;;13.32;4.40;;;;;;;29.15;100.00;100908.25;5050465;28;20029;-69
2023/09/14 08:58:54;;;;;;;5.55;3.85;;;;;;;28.71;100.00;100914.84;5050685;28;20045;-68
2023/09/14 09:01:19;;;;;;;6.78;3.88;;;;;;;28.64;100.00;100860.53;5050703;28;20033;-71
2023/09/14 09:03:45;;;;;;;8.05;3.80;;;;;;;28.57;100.00;100917.00;5049120;28;20553;-70
2023/09/14 09:06:11;;;;;;;6.32;4.20;;;;;;;29.28;100.00;100895.69;5050112;28;20419;-70
2023/09/14 09:08:37;;;;;;;7.15;4.32;;;;;;;29.04;100.00;100869.91;5050441;28;20086;-70
2023/09/14 09:11:04;;;;;;;4.95;3.88;;;;;;;28.31;100.00;100892.28;5050098;28;20025;-69
2023/09/14 09:13:40;;;;;;;5.25;3.90;;;;;;;28.87;100.00;100875.84;5050248;28;20029;-69
2023/09/14 09:16:06;;;;;;;5.68;3.90;;;;;;;29.49;100.00;100882.41;5049369;28;20029;-69
2023/09/14 09:18:35;;;;;;;10.30;4.10;;;;;;;29.46;100.00;100880.06;5032526;28;20032;-70
2023/09/14 09:21:05;;;;;;;7.78;3.90;;;;;;;29.57;100.00;100830.09;5048928;28;20033;-69
2023/09/14 09:23:32;;;;;;;8.40;4.13;;;;;;;29.10;100.00;100852.78;5048718;28;20037;-69
2023/09/14 09:25:57;;;;;;;7.15;4.18;;;;;;;29.36;100.00;100884.50;5050204;28;20029;-71
2023/09/14 09:28:30;;;;;;;7.82;4.00;;;;;;;29.39;100.00;100858.00;5050415;28;20029;-72
2023/09/14 09:30:56;;;;;;;7.57;3.97;;;;;;;29.16;100.00;100864.56;5050515;28;20549;-71
2023/09/14 09:33:37;;;;;;;6.55;3.92;;;;;;;29.77;100.00;100860.56;5032485;28;20037;-72
2023/09/14 09:36:16;;;;;;;8.27;4.00;;;;;;;28.55;100.00;100870.03;5049733;28;20037;-70
2023/09/14 09:38:42;;;;;;;5.80;3.88;;;;;;;29.10;100.00;100858.03;5048866;28;20029;-72
2023/09/14 09:41:12;;;;;;;7.03;4.05;;;;;;;30.30;100.00;100877.31;5050432;28;20025;-73
2023/09/14 09:43:39;;;;;;;6.82;4.22;;;;;;;29.62;100.00;100854.06;5050024;28;20070;-73
2023/09/14 09:46:14;;;;;;;5.47;4.22;;;;;;;29.92;100.00;100890.59;5050318;28;20036;-69
2023/09/14 09:48:40;;;;;;;8.25;4.90;;;;;;;29.57;100.00;100835.34;5049722;28;20033;-72
2023/09/14 09:51:06;;;;;;;8.48;4.13;;;;;;;28.79;100.00;100859.97;5050359;28;20032;-69
2023/09/14 09:53:31;;;;;;;9.23;4.20;;;;;;;30.17;100.00;100879.41;5049789;28;20034;-71
2023/09/14 09:55:57;;;;;;;11.52;4.38;;;;;;;29.16;100.00;100835.72;5050112;28;20029;-70
2023/09/14 09:58:34;;;;;;;6.70;3.95;;;;;;;29.90;100.00;100837.44;5050369;28;20060;-71
2023/09/14 10:01:00;;;;;;;5.75;3.78;;;;;;;30.59;100.00;100867.44;5050226;28;20025;-71
2023/09/14 10:03:25;;;;;;;7.38;4.00;;;;;;;30.71;100.00;100868.88;5053121;28;20036;-70
2023/09/14 10:05:51;;;;;;;8.60;4.72;;;;;;;30.40;100.00;100814.22;5052301;28;20033;-71
2023/09/14 10:08:19;;;;;;;9.07;4.47;;;;;;;30.00;100.00;100837.38;5053359;28;20072;-71
2023/09/14 10:10:53;;;;;;;9.25;4.38;;;;;;;30.41;100.00;100873.63;5052198;28;20056;-71
2023/09/14 10:13:23;;;;;;;7.50;4.00;;;;;;;30.60;100.00;100803.41;5052176;28;20491;-71
2023/09/14 10:15:51;;;;;;;9.63;4.72;;;;;;;30.95;100.00;100867.44;5053392;28;20047;-72
2023/09/14 10:18:20;;;;;;;6.60;4.00;;;;;;;30.23;100.00;100886.69;5035314;28;20095;-71
2023/09/14 10:20:47;;;;;;;6.32;4.28;;;;;;;30.40;100.00;100804.56;5052936;28;20032;-71
2023/09/14 10:23:15;;;;;;;7.80;4.30;;;;;;;29.88;100.00;100847.25;5053060;28;20500;-71
2023/09/14 10:25:45;;;;;;;9.43;4.57;;;;;;;30.10;100.00;100849.47;5053119;28;20029;-71
2023/09/14 10:28:12;;;;;;;8.85;4.20;;;;;;;31.02;100.00;100837.78;5052833;28;20033;-71
2023/09/14 10:30:39;;;;;;;11.85;4.20;;;;;;;30.18;100.00;100852.19;5034652;28;20075;-71
2023/09/14 10:33:07;;;;;;;10.35;4.38;;;;;;;30.36;100.00;100792.72;5053340;28;20060;-71
2023/09/14 10:35:33;;;;;;;12.00;4.60;;;;;;;30.16;100.00;100811.31;5034780;28;20032;-71
2023/09/14 10:37:59;;;;;;;6.68;4.00;;;;;;;29.75;100.00;100889.53;5034866;28;20415;-70
2023/09/14 10:40:27;;;;;;;10.23;4.40;;;;;;;30.41;100.00;100790.44;5052320;28;20139;-71
2023/09/14 10:42:52;;;;;;;11.85;4.30;;;;;;;30.32;100.00;100775.59;5051195;28;20032;-71
2023/09/14 10:45:19;;;;;;;7.30;4.20;;;;;;;31.13;100.00;100816.50;5053303;28;20145;-72
2023/09/14 10:47:50;;;;;;;5.68;3.97;;;;;;;30.26;100.00;100822.59;5051386;28;20025;-71
2023/09/14 10:50:19;;;;;;;6.68;4.20;;;;;;;30.98;100.00;100809.34;5052664;28;20032;-71
2023/09/14 10:52:45;;;;;;;9.40;4.10;;;;;;;31.27;100.00;100807.22;5052854;28;20048;-71
2023/09/14 10:55:11;;;;;;;8.75;4.10;;;;;;;30.59;100.00;100751.88;5052555;28;20036;-71
2023/09/14 10:57:40;;;;;;;9.88;4.60;;;;;;;30.91;100.00;100701.38;5052236;28;20075;-70
2023/09/14 11:00:07;;;;;;;13.18;4.38;;;;;;;31.05;100.00;100805.13;5053881;28;20538;-71
2023/09/14 11:02:45;;;;;;;12.95;4.90;;;;;;;31.39;100.00;100798.13;5058833;28;20116;-70
2023/09/14 11:05:21;;;;;;;12.05;5.22;;;;;;;31.28;100.00;100795.72;5054809;28;20037;-71
2023/09/14 11:07:55;;;;;;;6.93;4.05;;;;;;;31.10;100.00;100751.09;5050753;28;20410;-72
2023/09/14 11:10:22;;;;;;;6.97;4.20;;;;;;;30.70;100.00;100824.38;5052309;28;20029;-71